sensor_id;sensor_type;location;lat;lon;timestamp;pressure;altitude;pressure_sealevel;temperature;humidity
43770;BME280;6597;52.218;9.882;2023-04-26T00:01:29;100848.97;;;2.33;100.00
43770;BME280;6597;52.218;9.882;2023-04-26T00:03:55;100845.53;;;2.30;100.00
43770;BME280;6597;52.218;9.882;2023-04-26T00:06:22;100850.72;;;2.30;100.00
43770;BME280;6597;52.218;9.882;2023-04-26T00:08:49;100846.38;;;2.32;100.00
43770;BME280;6597;52.218;9.882;2023-04-26T00:11:15;100849.84;;;2.32;100.00
43770;BME280;6597;52.218;9.882;2023-04-26T00:13:42;100859.34;;;2.35;100.00
43770;BME280;6597;52.218;9.882;2023-04-26T00:16:08;100854.16;;;2.29;100.00
43770;BME280;6597;52.218;9.882;2023-04-26T00:18:36;100855.84;;;2.24;100.00
43770;BME280;6597;52.218;9.882;2023-04-26T00:21:03;100864.50;;;2.24;100.00
43770;BME280;6597;52.218;9.882;2023-04-26T00:23:29;100848.97;;;2.19;100.00
43770;BME280;6597;52.218;9.882;2023-04-26T00:25:56;100854.13;;;2.19;100.00
43770;BME280;6597;52.218;9.882;2023-04-26T00:28:22;100850.69;;;2.21;100.00
43770;BME280;6597;52.218;9.882;2023-04-26T00:30:49;100855.00;;;2.18;100.00
43770;BME280;6597;52.218;9.882;2023-04-26T00:33:15;100861.91;;;2.21;100.00
43770;BME280;6597;52.218;9.882;2023-04-26T00:35:43;100855.00;;;2.18;100.00
43770;BME280;6597;52.218;9.882;2023-04-26T00:38:10;100850.69;;;2.17;100.00
43770;BME280;6597;52.218;9.882;2023-04-26T00:40:36;100855.00;;;2.12;100.00
43770;BME280;6597;52.218;9.882;2023-04-26T00:43:04;100857.59;;;2.12;100.00
43770;BME280;6597;52.218;9.882;2023-04-26T00:45:31;100855.88;;;2.16;100.00
43770;BME280;6597;52.218;9.882;2023-04-26T00:47:59;100859.31;;;2.18;100.00
43770;BME280;6597;52.218;9.882;2023-04-26T00:50:26;100859.31;;;2.13;100.00
43770;BME280;6597;52.218;9.882;2023-04-26T00:52:56;100860.19;;;2.09;100.00
43770;BME280;6597;52.218;9.882;2023-04-26T00:55:23;100859.31;;;2.07;100.00
43770;BME280;6597;52.218;9.882;2023-04-26T00:57:51;100863.63;;;2.05;100.00
43770;BME280;6597;52.218;9.882;2023-04-26T01:00:19;100857.59;;;2.06;100.00
43770;BME280;6597;52.218;9.882;2023-04-26T01:02:47;100853.28;;;2.05;100.00
43770;BME280;6597;52.218;9.882;2023-04-26T01:05:13;100853.28;;;2.04;100.00
43770;BME280;6597;52.218;9.882;2023-04-26T01:07:43;100855.00;;;2.00;100.00
43770;BME280;6597;52.218;9.882;2023-04-26T01:10:11;100865.34;;;1.97;100.00
43770;BME280;6597;52.218;9.882;2023-04-26T01:12:38;100864.50;;;1.98;100.00
43770;BME280;6597;52.218;9.882;2023-04-26T01:15:05;100868.81;;;1.96;100.00
43770;BME280;6597;52.218;9.882;2023-04-26T01:17:32;100873.94;;;1.93;100.00
43770;BME280;6597;52.218;9.882;2023-04-26T01:19:58;100868.78;;;1.92;100.00
43770;BME280;6597;52.218;9.882;2023-04-26T01:22:25;100869.63;;;1.87;100.00
43770;BME280;6597;52.218;9.882;2023-04-26T01:24:55;100872.22;;;1.87;100.00
43770;BME280;6597;52.218;9.882;2023-04-26T01:27:23;100877.38;;;1.89;100.00
43770;BME280;6597;52.218;9.882;2023-04-26T01:29:50;100873.06;;;1.88;100.00
43770;BME280;6597;52.218;9.882;2023-04-26T01:32:16;100875.66;;;1.88;100.00
43770;BME280;6597;52.218;9.882;2023-04-26T01:34:43;100872.22;;;1.86;100.00
43770;BME280;6597;52.218;9.882;2023-04-26T01:37:10;100874.78;;;1.81;100.00
43770;BME280;6597;52.218;9.882;2023-04-26T01:39:37;100870.47;;;1.79;100.00
43770;BME280;6597;52.218;9.882;2023-04-26T01:42:05;100870.47;;;1.79;100.00
43770;BME280;6597;52.218;9.882;2023-04-26T01:44:31;100870.47;;;1.74;100.00
43770;BME280;6597;52.218;9.882;2023-04-26T01:47:00;100875.66;;;1.76;100.00
43770;BME280;6597;52.218;9.882;2023-04-26T01:49:26;100869.59;;;1.75;100.00
43770;BME280;6597;52.218;9.882;2023-04-26T01:51:53;100879.09;;;1.75;100.00
43770;BME280;6597;52.218;9.882;2023-04-26T01:54:22;100878.22;;;1.74;100.00
43770;BME280;6597;52.218;9.882;2023-04-26T01:56:48;100870.44;;;1.67;100.00
43770;BME280;6597;52.218;9.882;2023-04-26T01:59:16;100875.63;;;1.65;100.00
43770;BME280;6597;52.218;9.882;2023-04-26T02:01:43;100872.13;;;1.62;100.00
43770;BME280;6597;52.218;9.882;2023-04-26T02:04:09;100878.16;;;1.62;100.00
43770;BME280;6597;52.218;9.882;2023-04-26T02:06:36;100876.44;;;1.60;100.00
43770;BME280;6597;52.218;9.882;2023-04-26T02:09:03;100874.72;;;1.59;100.00
43770;BME280;6597;52.218;9.882;2023-04-26T02:11:30;100881.59;;;1.56;100.00
43770;BME280;6597;52.218;9.882;2023-04-26T02:13:56;100875.56;;;1.58;100.00
43770;BME280;6597;52.218;9.882;2023-04-26T02:16:24;100879.88;;;1.52;100.00
43770;BME280;6597;52.218;9.882;2023-04-26T02:18:51;100872.97;;;1.47;100.00
43770;BME280;6597;52.218;9.882;2023-04-26T02:21:19;100877.28;;;1.48;100.00
43770;BME280;6597;52.218;9.882;2023-04-26T02:23:46;100874.69;;;1.48;100.00
43770;BME280;6597;52.218;9.882;2023-04-26T02:26:13;100873.81;;;1.43;100.00
43770;BME280;6597;52.218;9.882;2023-04-26T02:28:42;100872.94;;;1.41;100.00
43770;BME280;6597;52.218;9.882;2023-04-26T02:31:09;100867.75;;;1.38;100.00
43770;BME280;6597;52.218;9.882;2023-04-26T02:33:37;100866.03;;;1.40;100.00
43770;BME280;6597;52.218;9.882;2023-04-26T02:36:04;100880.69;;;1.39;100.00
43770;BME280;6597;52.218;9.882;2023-04-26T02:38:32;100881.56;;;1.41;100.00
43770;BME280;6597;52.218;9.882;2023-04-26T02:40:59;100880.69;;;1.36;100.00
43770;BME280;6597;52.218;9.882;2023-04-26T02:43:26;100878.09;;;1.35;100.00
43770;BME280;6597;52.218;9.882;2023-04-26T02:45:53;100878.09;;;1.36;100.00
43770;BME280;6597;52.218;9.882;2023-04-26T02:48:23;100880.66;;;1.32;100.00
43770;BME280;6597;52.218;9.882;2023-04-26T02:50:51;100877.22;;;1.31;100.00
43770;BME280;6597;52.218;9.882;2023-04-26T02:53:17;100886.69;;;1.31;100.00
43770;BME280;6597;52.218;9.882;2023-04-26T02:55:44;100881.47;;;1.28;100.00
43770;BME280;6597;52.218;9.882;2023-04-26T02:58:10;100872.84;;;1.25;100.00
43770;BME280;6597;52.218;9.882;2023-04-26T03:00:37;100882.34;;;1.25;100.00
43770;BME280;6597;52.218;9.882;2023-04-26T03:03:04;100890.06;;;1.20;100.00
43770;BME280;6597;52.218;9.882;2023-04-26T03:05:30;100884.03;;;1.17;100.00
43770;BME280;6597;52.218;9.882;2023-04-26T03:07:58;100877.13;;;1.14;100.00
43770;BME280;6597;52.218;9.882;2023-04-26T03:10:25;100872.81;;;1.12;100.00
43770;BME280;6597;52.218;9.882;2023-04-26T03:12:51;100875.38;;;1.10;100.00
43770;BME280;6597;52.218;9.882;2023-04-26T03:15:18;100878.81;;;1.08;100.00
43770;BME280;6597;52.218;9.882;2023-04-26T03:17:45;100872.78;;;1.04;100.00
43770;BME280;6597;52.218;9.882;2023-04-26T03:20:11;100867.59;;;1.04;100.00
43770;BME280;6597;52.218;9.882;2023-04-26T03:22:38;100866.72;;;1.02;100.00
43770;BME280;6597;52.218;9.882;2023-04-26T03:25:08;100871.88;;;0.99;100.00
43770;BME280;6597;52.218;9.882;2023-04-26T03:27:34;100873.59;;;0.99;100.00
43770;BME280;6597;52.218;9.882;2023-04-26T03:30:01;100872.69;;;0.97;100.00
43770;BME280;6597;52.218;9.882;2023-04-26T03:32:29;100874.41;;;0.94;100.00
43770;BME280;6597;52.218;9.882;2023-04-26T03:34:56;100873.53;;;0.91;100.00
43770;BME280;6597;52.218;9.882;2023-04-26T03:37:23;100874.38;;;0.90;100.00
43770;BME280;6597;52.218;9.882;2023-04-26T03:39:56;100874.38;;;0.90;100.00
43770;BME280;6597;52.218;9.882;2023-04-26T03:42:24;100872.66;;;0.89;100.00
43770;BME280;6597;52.218;9.882;2023-04-26T03:44:51;100869.22;;;0.90;100.00
43770;BME280;6597;52.218;9.882;2023-04-26T03:47:17;100872.66;;;0.87;100.00
43770;BME280;6597;52.218;9.882;2023-04-26T03:49:44;100884.69;;;0.85;100.00
43770;BME280;6597;52.218;9.882;2023-04-26T03:52:11;100876.06;;;0.83;100.00
43770;BME280;6597;52.218;9.882;2023-04-26T03:54:37;100886.44;;;0.89;100.00
43770;BME280;6597;52.218;9.882;2023-04-26T03:57:04;100890.75;;;0.89;100.00
43770;BME280;6597;52.218;9.882;2023-04-26T03:59:33;100880.41;;;0.90;100.00
43770;BME280;6597;52.218;9.882;2023-04-26T04:01:59;100875.28;;;0.93;100.00
43770;BME280;6597;52.218;9.882;2023-04-26T04:04:26;100879.63;;;0.99;100.00
43770;BME280;6597;52.218;9.882;2023-04-26T04:06:53;100878.78;;;1.02;100.00
43770;BME280;6597;52.218;9.882;2023-04-26T04:09:19;100883.97;;;1.05;100.00
43770;BME280;6597;52.218;9.882;2023-04-26T04:11:46;100880.53;;;1.07;100.00
43770;BME280;6597;52.218;9.882;2023-04-26T04:14:13;100885.72;;;1.07;100.00
43770;BME280;6597;52.218;9.882;2023-04-26T04:16:41;100889.16;;;1.08;100.00
43770;BME280;6597;52.218;9.882;2023-04-26T04:19:08;100884.84;;;1.07;100.00
43770;BME280;6597;52.218;9.882;2023-04-26T04:21:34;100877.94;;;1.06;100.00
43770;BME280;6597;52.218;9.882;2023-04-26T04:24:02;100884.84;;;1.07;100.00
43770;BME280;6597;52.218;9.882;2023-04-26T04:26:29;100891.75;;;1.08;100.00
43770;BME280;6597;52.218;9.882;2023-04-26T04:28:55;100888.28;;;1.07;100.00
43770;BME280;6597;52.218;9.882;2023-04-26T04:31:24;100890.88;;;1.09;100.00
43770;BME280;6597;52.218;9.882;2023-04-26T04:33:52;100888.31;;;1.09;100.00
43770;BME280;6597;52.218;9.882;2023-04-26T04:36:19;100892.63;;;1.11;100.00
43770;BME280;6597;52.218;9.882;2023-04-26T04:38:46;100882.31;;;1.16;100.00
43770;BME280;6597;52.218;9.882;2023-04-26T04:41:14;100891.81;;;1.26;100.00
43770;BME280;6597;52.218;9.882;2023-04-26T04:43:41;100900.50;;;1.36;100.00
43770;BME280;6597;52.218;9.882;2023-04-26T04:46:08;100894.50;;;1.44;100.00
43770;BME280;6597;52.218;9.882;2023-04-26T04:48:35;100895.41;;;1.55;100.00
43770;BME280;6597;52.218;9.882;2023-04-26T04:51:04;100886.78;;;1.60;100.00
43770;BME280;6597;52.218;9.882;2023-04-26T04:53:31;100911.88;;;1.77;100.00
43770;BME280;6597;52.218;9.882;2023-04-26T04:55:58;100899.81;;;1.90;100.00
43770;BME280;6597;52.218;9.882;2023-04-26T04:58:24;100902.47;;;2.04;100.00
43770;BME280;6597;52.218;9.882;2023-04-26T05:00:52;100897.31;;;2.16;100.00
43770;BME280;6597;52.218;9.882;2023-04-26T05:03:25;100898.16;;;2.27;100.00
43770;BME280;6597;52.218;9.882;2023-04-26T05:05:52;100900.78;;;2.38;100.00
43770;BME280;6597;52.218;9.882;2023-04-26T05:08:20;100899.06;;;2.49;100.00
43770;BME280;6597;52.218;9.882;2023-04-26T05:10:47;100899.91;;;2.59;100.00
43770;BME280;6597;52.218;9.882;2023-04-26T05:13:14;100899.06;;;2.69;100.00
43770;BME280;6597;52.218;9.882;2023-04-26T05:15:40;100900.78;;;2.74;100.00
43770;BME280;6597;52.218;9.882;2023-04-26T05:18:07;100899.91;;;2.74;100.00
43770;BME280;6597;52.218;9.882;2023-04-26T05:20:34;100898.19;;;2.73;100.00
43770;BME280;6597;52.218;9.882;2023-04-26T05:23:01;100905.09;;;2.78;100.00
43770;BME280;6597;52.218;9.882;2023-04-26T05:25:29;100910.28;;;2.81;100.00
43770;BME280;6597;52.218;9.882;2023-04-26T05:28:03;100912.84;;;2.83;100.00
43770;BME280;6597;52.218;9.882;2023-04-26T05:30:45;100918.03;;;2.83;100.00
43770;BME280;6597;52.218;9.882;2023-04-26T05:33:34;100914.59;;;2.84;100.00
43770;BME280;6597;52.218;9.882;2023-04-26T05:36:28;100918.03;;;2.89;100.00
43770;BME280;6597;52.218;9.882;2023-04-26T05:38:54;100928.41;;;2.98;100.00
43770;BME280;6597;52.218;9.882;2023-04-26T05:41:22;100925.81;;;3.03;100.00
43770;BME280;6597;52.218;9.882;2023-04-26T05:43:49;100926.66;;;3.09;100.00
43770;BME280;6597;52.218;9.882;2023-04-26T05:46:15;100923.16;;;3.21;100.00
43770;BME280;6597;52.218;9.882;2023-04-26T05:48:42;100924.88;;;3.33;100.00
43770;BME280;6597;52.218;9.882;2023-04-26T05:51:08;100930.91;;;3.42;100.00
43770;BME280;6597;52.218;9.882;2023-04-26T05:53:35;100932.59;;;3.51;99.73
43770;BME280;6597;52.218;9.882;2023-04-26T05:56:02;100936.91;;;3.58;100.00
43770;BME280;6597;52.218;9.882;2023-04-26T05:58:30;100938.59;;;3.71;99.66
43770;BME280;6597;52.218;9.882;2023-04-26T06:00:58;100930.75;;;3.81;98.82
43770;BME280;6597;52.218;9.882;2023-04-26T06:03:24;100933.31;;;3.88;97.97
43770;BME280;6597;52.218;9.882;2023-04-26T06:05:52;100935.03;;;3.95;97.40
43770;BME280;6597;52.218;9.882;2023-04-26T06:08:20;100935.84;;;4.03;97.28
43770;BME280;6597;52.218;9.882;2023-04-26T06:10:48;100935.72;;;4.19;96.83
43770;BME280;6597;52.218;9.882;2023-04-26T06:13:15;100934.78;;;4.35;96.73
43770;BME280;6597;52.218;9.882;2023-04-26T06:15:43;100937.31;;;4.44;94.99
43770;BME280;6597;52.218;9.882;2023-04-26T06:18:09;100939.00;;;4.48;93.55
43770;BME280;6597;52.218;9.882;2023-04-26T06:20:36;100937.22;;;4.55;92.03
43770;BME280;6597;52.218;9.882;2023-04-26T06:23:05;100936.31;;;4.62;92.00
43770;BME280;6597;52.218;9.882;2023-04-26T06:25:32;100930.19;;;4.71;91.36
43770;BME280;6597;52.218;9.882;2023-04-26T06:27:59;100932.69;;;4.81;91.10
43770;BME280;6597;52.218;9.882;2023-04-26T06:30:26;100935.19;;;4.95;91.16
43770;BME280;6597;52.218;9.882;2023-04-26T06:32:54;100931.66;;;4.99;90.16
43770;BME280;6597;52.218;9.882;2023-04-26T06:35:23;100935.16;;;4.98;88.45
43770;BME280;6597;52.218;9.882;2023-04-26T06:37:50;100929.78;;;5.13;88.93
43770;BME280;6597;52.218;9.882;2023-04-26T06:40:17;100935.69;;;5.29;87.30
43770;BME280;6597;52.218;9.882;2023-04-26T06:42:44;100941.63;;;5.42;87.55
43770;BME280;6597;52.218;9.882;2023-04-26T06:45:28;100942.06;;;5.77;88.22
43770;BME280;6597;52.218;9.882;2023-04-26T06:47:57;100947.03;;;6.00;83.42
43770;BME280;6597;52.218;9.882;2023-04-26T06:50:26;100946.66;;;6.28;81.76
43770;BME280;6597;52.218;9.882;2023-04-26T06:52:53;100941.00;;;6.57;80.47
43770;BME280;6597;52.218;9.882;2023-04-26T06:55:20;100937.16;;;6.79;79.60
43770;BME280;6597;52.218;9.882;2023-04-26T06:57:46;100944.53;;;7.05;78.05
43770;BME280;6597;52.218;9.882;2023-04-26T07:00:13;100942.13;;;7.42;78.53
43770;BME280;6597;52.218;9.882;2023-04-26T07:02:40;100940.34;;;7.87;77.83
43770;BME280;6597;52.218;9.882;2023-04-26T07:05:08;100941.69;;;8.05;72.68
43770;BME280;6597;52.218;9.882;2023-04-26T07:07:35;100946.03;;;8.06;73.52
43770;BME280;6597;52.218;9.882;2023-04-26T07:10:02;100927.19;;;7.92;73.87
43770;BME280;6597;52.218;9.882;2023-04-26T07:12:28;100949.50;;;7.65;72.50
43770;BME280;6597;52.218;9.882;2023-04-26T07:14:55;100941.25;;;7.41;74.33
43770;BME280;6597;52.218;9.882;2023-04-26T07:17:21;100946.78;;;7.26;74.58
43770;BME280;6597;52.218;9.882;2023-04-26T07:19:48;100951.91;;;7.31;75.54
43770;BME280;6597;52.218;9.882;2023-04-26T07:22:16;100952.81;;;7.30;75.78
43770;BME280;6597;52.218;9.882;2023-04-26T07:24:42;100950.44;;;7.62;77.44
43770;BME280;6597;52.218;9.882;2023-04-26T07:27:09;100946.78;;;8.11;75.07
43770;BME280;6597;52.218;9.882;2023-04-26T07:29:36;100949.00;;;8.68;72.01
43770;BME280;6597;52.218;9.882;2023-04-26T07:32:04;100945.78;;;8.57;68.59
43770;BME280;6597;52.218;9.882;2023-04-26T07:34:30;100952.38;;;8.36;69.97
43770;BME280;6597;52.218;9.882;2023-04-26T07:36:57;100943.44;;;8.04;70.62
43770;BME280;6597;52.218;9.882;2023-04-26T07:39:25;100956.97;;;7.85;71.30
43770;BME280;6597;52.218;9.882;2023-04-26T07:41:51;100955.28;;;8.22;73.47
43770;BME280;6597;52.218;9.882;2023-04-26T07:44:18;100947.19;;;8.34;71.37
43770;BME280;6597;52.218;9.882;2023-04-26T07:46:44;100953.59;;;8.20;70.73
43770;BME280;6597;52.218;9.882;2023-04-26T07:49:12;100955.09;;;7.90;70.48
43770;BME280;6597;52.218;9.882;2023-04-26T07:51:42;100953.88;;;7.64;71.99
43770;BME280;6597;52.218;9.882;2023-04-26T07:54:09;100964.84;;;7.37;73.19
43770;BME280;6597;52.218;9.882;2023-04-26T07:56:37;100960.88;;;7.14;74.29
43770;BME280;6597;52.218;9.882;2023-04-26T07:59:03;100965.66;;;7.40;73.91
43770;BME280;6597;52.218;9.882;2023-04-26T08:01:30;100957.88;;;7.82;72.59
43770;BME280;6597;52.218;9.882;2023-04-26T08:03:56;100960.38;;;8.28;71.49
43770;BME280;6597;52.218;9.882;2023-04-26T08:06:23;100946.53;;;8.62;67.20
43770;BME280;6597;52.218;9.882;2023-04-26T08:08:49;100948.81;;;9.10;66.38
43770;BME280;6597;52.218;9.882;2023-04-26T08:11:17;100952.91;;;9.21;62.39
43770;BME280;6597;52.218;9.882;2023-04-26T08:13:45;100950.63;;;9.08;59.45
43770;BME280;6597;52.218;9.882;2023-04-26T08:16:12;100960.94;;;9.48;60.14
43770;BME280;6597;52.218;9.882;2023-04-26T08:18:38;100958.50;;;9.71;58.74
43770;BME280;6597;52.218;9.882;2023-04-26T08:21:05;100951.94;;;10.17;57.95
43770;BME280;6597;52.218;9.882;2023-04-26T08:23:32;100963.94;;;10.25;56.69
43770;BME280;6597;52.218;9.882;2023-04-26T08:26:01;100956.97;;;10.24;57.21
43770;BME280;6597;52.218;9.882;2023-04-26T08:28:27;100949.22;;;10.49;56.28
43770;BME280;6597;52.218;9.882;2023-04-26T08:30:55;100954.13;;;10.60;55.41
43770;BME280;6597;52.218;9.882;2023-04-26T08:33:22;100948.50;;;10.71;53.84
43770;BME280;6597;52.218;9.882;2023-04-26T08:35:48;100952.66;;;10.51;51.86
43770;BME280;6597;52.218;9.882;2023-04-26T08:38:15;100953.16;;;10.35;54.37
43770;BME280;6597;52.218;9.882;2023-04-26T08:40:42;100962.53;;;10.70;52.26
43770;BME280;6597;52.218;9.882;2023-04-26T08:43:13;100950.16;;;11.26;52.85
43770;BME280;6597;52.218;9.882;2023-04-26T08:45:43;100953.44;;;11.08;51.96
43770;BME280;6597;52.218;9.882;2023-04-26T08:48:12;100960.72;;;10.73;52.40
43770;BME280;6597;52.218;9.882;2023-04-26T08:50:42;100957.97;;;10.76;53.13
43770;BME280;6597;52.218;9.882;2023-04-26T08:53:12;100966.75;;;10.75;53.44
43770;BME280;6597;52.218;9.882;2023-04-26T08:55:40;100964.00;;;10.24;52.12
43770;BME280;6597;52.218;9.882;2023-04-26T08:58:07;100954.19;;;9.99;51.62
43770;BME280;6597;52.218;9.882;2023-04-26T09:00:34;100953.97;;;10.07;54.16
43770;BME280;6597;52.218;9.882;2023-04-26T09:03:01;100952.16;;;10.39;53.06
43770;BME280;6597;52.218;9.882;2023-04-26T09:05:29;100962.75;;;10.64;51.59
43770;BME280;6597;52.218;9.882;2023-04-26T09:07:59;100957.59;;;10.60;51.56
43770;BME280;6597;52.218;9.882;2023-04-26T09:10:29;100957.78;;;10.26;50.65
43770;BME280;6597;52.218;9.882;2023-04-26T09:12:57;100952.19;;;10.08;53.50
43770;BME280;6597;52.218;9.882;2023-04-26T09:15:25;100957.13;;;9.89;53.57
43770;BME280;6597;52.218;9.882;2023-04-26T09:17:52;100960.03;;;9.80;53.33
43770;BME280;6597;52.218;9.882;2023-04-26T09:20:21;100952.66;;;9.61;50.60
43770;BME280;6597;52.218;9.882;2023-04-26T09:22:49;100954.16;;;10.31;50.54
43770;BME280;6597;52.218;9.882;2023-04-26T09:25:17;100951.59;;;11.10;49.13
43770;BME280;6597;52.218;9.882;2023-04-26T09:27:44;100948.09;;;11.59;47.72
43770;BME280;6597;52.218;9.882;2023-04-26T09:30:13;100948.84;;;11.88;48.09
43770;BME280;6597;52.218;9.882;2023-04-26T09:32:49;100947.63;;;11.73;46.92
43770;BME280;6597;52.218;9.882;2023-04-26T09:35:25;100948.91;;;11.36;49.23
43770;BME280;6597;52.218;9.882;2023-04-26T09:37:55;100961.22;;;10.84;47.43
43770;BME280;6597;52.218;9.882;2023-04-26T09:40:24;100965.06;;;10.74;48.89
43770;BME280;6597;52.218;9.882;2023-04-26T09:42:58;100958.19;;;10.42;48.96
43770;BME280;6597;52.218;9.882;2023-04-26T09:45:25;100965.97;;;10.16;48.09
43770;BME280;6597;52.218;9.882;2023-04-26T09:47:52;100957.41;;;10.39;48.21
43770;BME280;6597;52.218;9.882;2023-04-26T09:50:29;100962.84;;;10.33;48.96
43770;BME280;6597;52.218;9.882;2023-04-26T09:52:58;100953.00;;;10.11;49.54
43770;BME280;6597;52.218;9.882;2023-04-26T09:55:25;100956.84;;;9.98;50.56
43770;BME280;6597;52.218;9.882;2023-04-26T09:57:52;100966.50;;;9.66;52.11
43770;BME280;6597;52.218;9.882;2023-04-26T10:00:20;100938.94;;;9.53;52.41
43770;BME280;6597;52.218;9.882;2023-04-26T10:02:46;100959.69;;;9.61;54.47
43770;BME280;6597;52.218;9.882;2023-04-26T10:05:13;100968.88;;;9.45;52.53
43770;BME280;6597;52.218;9.882;2023-04-26T10:07:40;100972.41;;;9.44;52.65
43770;BME280;6597;52.218;9.882;2023-04-26T10:10:09;100966.44;;;9.37;51.76
43770;BME280;6597;52.218;9.882;2023-04-26T10:12:39;100967.34;;;9.36;53.04
43770;BME280;6597;52.218;9.882;2023-04-26T10:15:08;100959.91;;;9.21;53.62
43770;BME280;6597;52.218;9.882;2023-04-26T10:17:35;100974.59;;;9.26;55.16
43770;BME280;6597;52.218;9.882;2023-04-26T10:20:03;100965.41;;;9.43;56.46
43770;BME280;6597;52.218;9.882;2023-04-26T10:22:36;100952.13;;;9.50;52.07
43770;BME280;6597;52.218;9.882;2023-04-26T10:25:09;100955.34;;;9.60;51.55
43770;BME280;6597;52.218;9.882;2023-04-26T10:27:49;100955.66;;;9.80;51.34
43770;BME280;6597;52.218;9.882;2023-04-26T10:30:17;100961.09;;;10.33;49.63
43770;BME280;6597;52.218;9.882;2023-04-26T10:33:14;100959.50;;;10.83;49.16
43770;BME280;6597;52.218;9.882;2023-04-26T10:36:02;100959.34;;;10.88;46.84
43770;BME280;6597;52.218;9.882;2023-04-26T10:38:29;100954.44;;;10.77;47.60
43770;BME280;6597;52.218;9.882;2023-04-26T10:41:27;100959.97;;;10.42;47.95
43770;BME280;6597;52.218;9.882;2023-04-26T10:43:54;100947.84;;;10.07;49.68
43770;BME280;6597;52.218;9.882;2023-04-26T10:46:35;100951.47;;;10.03;51.44
43770;BME280;6597;52.218;9.882;2023-04-26T10:49:16;100957.81;;;9.95;52.12
43770;BME280;6597;52.218;9.882;2023-04-26T10:52:09;100949.31;;;9.87;50.89
43770;BME280;6597;52.218;9.882;2023-04-26T10:54:51;100946.38;;;9.98;51.99
43770;BME280;6597;52.218;9.882;2023-04-26T10:57:20;100959.44;;;9.99;49.15
43770;BME280;6597;52.218;9.882;2023-04-26T11:00:18;100959.19;;;10.09;48.77
43770;BME280;6597;52.218;9.882;2023-04-26T11:02:52;100953.13;;;10.36;47.54
43770;BME280;6597;52.218;9.882;2023-04-26T11:05:35;100944.78;;;10.78;47.66
43770;BME280;6597;52.218;9.882;2023-04-26T11:08:04;100948.25;;;11.05;44.92
43770;BME280;6597;52.218;9.882;2023-04-26T11:10:30;100943.53;;;11.64;43.63
43770;BME280;6597;52.218;9.882;2023-04-26T11:13:02;100949.16;;;12.02;42.32
43770;BME280;6597;52.218;9.882;2023-04-26T11:15:29;100931.59;;;12.69;41.40
43770;BME280;6597;52.218;9.882;2023-04-26T11:17:56;100921.00;;;13.33;41.28
43770;BME280;6597;52.218;9.882;2023-04-26T11:20:27;100924.81;;;14.05;40.82
43770;BME280;6597;52.218;9.882;2023-04-26T11:22:54;100933.41;;;13.89;39.24
43770;BME280;6597;52.218;9.882;2023-04-26T11:25:21;100927.16;;;13.53;39.46
43770;BME280;6597;52.218;9.882;2023-04-26T11:27:49;100937.94;;;12.86;40.80
43770;BME280;6597;52.218;9.882;2023-04-26T11:30:18;100944.44;;;12.33;42.13
43770;BME280;6597;52.218;9.882;2023-04-26T11:32:45;100944.31;;;11.91;42.62
43770;BME280;6597;52.218;9.882;2023-04-26T11:35:11;100944.66;;;11.32;41.47
43770;BME280;6597;52.218;9.882;2023-04-26T11:37:38;100942.13;;;11.06;41.99
43770;BME280;6597;52.218;9.882;2023-04-26T11:40:08;100945.84;;;10.99;43.35
43770;BME280;6597;52.218;9.882;2023-04-26T11:42:35;100944.75;;;11.06;43.04
43770;BME280;6597;52.218;9.882;2023-04-26T11:45:02;100943.72;;;11.10;44.90
43770;BME280;6597;52.218;9.882;2023-04-26T11:47:33;100943.28;;;11.22;44.86
43770;BME280;6597;52.218;9.882;2023-04-26T11:50:00;100941.63;;;11.19;44.30
43770;BME280;6597;52.218;9.882;2023-04-26T11:52:28;100943.22;;;11.23;44.77
43770;BME280;6597;52.218;9.882;2023-04-26T11:55:00;100940.81;;;11.17;44.05
43770;BME280;6597;52.218;9.882;2023-04-26T11:57:29;100942.47;;;10.95;45.05
43770;BME280;6597;52.218;9.882;2023-04-26T12:00:12;100942.00;;;10.82;46.57
43770;BME280;6597;52.218;9.882;2023-04-26T12:02:43;100959.50;;;10.83;48.60
43770;BME280;6597;52.218;9.882;2023-04-26T12:05:10;100953.75;;;10.71;47.05
43770;BME280;6597;52.218;9.882;2023-04-26T12:07:38;100953.53;;;10.78;45.98
43770;BME280;6597;52.218;9.882;2023-04-26T12:10:13;100950.66;;;10.86;45.69
43770;BME280;6597;52.218;9.882;2023-04-26T12:12:43;100948.72;;;10.91;47.54
43770;BME280;6597;52.218;9.882;2023-04-26T12:15:11;100945.94;;;10.96;45.21
43770;BME280;6597;52.218;9.882;2023-04-26T12:17:37;100955.31;;;10.78;45.76
43770;BME280;6597;52.218;9.882;2023-04-26T12:20:10;100964.88;;;10.52;46.26
43770;BME280;6597;52.218;9.882;2023-04-26T12:22:37;100954.94;;;10.34;48.29
43770;BME280;6597;52.218;9.882;2023-04-26T12:25:04;100962.31;;;10.21;46.89
43770;BME280;6597;52.218;9.882;2023-04-26T12:27:32;100958.22;;;10.11;47.71
43770;BME280;6597;52.218;9.882;2023-04-26T12:29:58;100955.09;;;10.84;45.71
43770;BME280;6597;52.218;9.882;2023-04-26T12:32:25;100948.47;;;11.73;44.98
43770;BME280;6597;52.218;9.882;2023-04-26T12:34:51;100934.78;;;12.56;43.45
43770;BME280;6597;52.218;9.882;2023-04-26T12:37:19;100936.78;;;13.13;42.72
43770;BME280;6597;52.218;9.882;2023-04-26T12:39:46;100949.13;;;13.53;41.08
43770;BME280;6597;52.218;9.882;2023-04-26T12:42:12;100936.44;;;14.00;41.33
43770;BME280;6597;52.218;9.882;2023-04-26T12:44:39;100940.84;;;14.00;39.87
43770;BME280;6597;52.218;9.882;2023-04-26T12:47:05;100939.41;;;14.12;39.96
43770;BME280;6597;52.218;9.882;2023-04-26T12:49:32;100943.59;;;14.72;40.00
43770;BME280;6597;52.218;9.882;2023-04-26T12:51:59;100939.63;;;14.81;37.18
43770;BME280;6597;52.218;9.882;2023-04-26T12:54:26;100936.06;;;14.99;38.08
43770;BME280;6597;52.218;9.882;2023-04-26T12:56:53;100929.69;;;15.03;36.64
43770;BME280;6597;52.218;9.882;2023-04-26T12:59:20;100931.31;;;14.88;36.63
43770;BME280;6597;52.218;9.882;2023-04-26T13:01:46;100930.94;;;15.31;36.40
43770;BME280;6597;52.218;9.882;2023-04-26T13:04:13;100927.97;;;15.37;36.78
43770;BME280;6597;52.218;9.882;2023-04-26T13:06:40;100935.09;;;15.52;34.57
43770;BME280;6597;52.218;9.882;2023-04-26T13:09:06;100932.06;;;15.60;35.88